Time;durP1;ratioP1;P1;durP2;ratioP2;P2;SDS_P1;SDS_P2;PMS_P1;PMS_P2;Temp;Humidity;BMP_temperature;BMP_pressure;BME280_temperature;BME280_humidity;BME280_pressure;Samples;Min_cycle;Max_cycle;Signal;HPM_P1;HPM_P2
2024/01/06 00:01:18;;;;;;;;;;;3.30;99.90;;;;;;5091243;28;19954;-68
2024/01/06 00:03:45;;;;;;;;;;;3.30;99.90;;;;;;5088269;28;20455;-68
2024/01/06 00:06:13;;;;;;;;;;;3.30;99.90;;;;;;5092243;28;19928;-69
2024/01/06 00:08:40;;;;;;;;;;;3.30;99.90;;;;;;5091998;28;20340;-69
2024/01/06 00:11:06;;;;;;;;;;;3.20;99.90;;;;;;5089960;28;19925;-68
2024/01/06 00:13:33;;;;;;;;;;;3.30;99.90;;;;;;5091759;28;20460;-68
2024/01/06 00:16:01;;;;;;;;;;;3.60;99.90;;;;;;5083703;28;19969;-68
2024/01/06 00:18:27;;;;;;;;;;;3.20;99.90;;;;;;5085322;28;19978;-68
2024/01/06 00:20:54;;;;;;;;;;;3.20;99.90;;;;;;5090060;28;19931;-69
2024/01/06 00:23:22;;;;;;;;;;;3.20;99.90;;;;;;5092157;28;19971;-69
2024/01/06 00:25:48;;;;;;;;;;;3.10;99.90;;;;;;5088995;28;20443;-69
2024/01/06 00:28:14;;;;;;;;;;;3.00;99.90;;;;;;5091979;28;19924;-68
2024/01/06 00:30:41;;;;;;;;;;;2.90;99.90;;;;;;5084205;28;19924;-68
2024/01/06 00:33:07;;;;;;;;;;;2.90;99.90;;;;;;5089180;28;19928;-68
2024/01/06 00:35:34;;;;;;;;;;;2.80;99.90;;;;;;5091453;28;19931;-68
2024/01/06 00:38:01;;;;;;;;;;;2.70;99.90;;;;;;5091276;28;19932;-68
2024/01/06 00:40:29;;;;;;;;;;;2.70;99.90;;;;;;5089199;28;20362;-68
2024/01/06 00:42:55;;;;;;;;;;;2.60;99.90;;;;;;5091685;28;19928;-69
2024/01/06 00:45:22;;;;;;;;;;;2.50;99.90;;;;;;5091277;28;19924;-68
2024/01/06 00:47:48;;;;;;;;;;;2.60;99.90;;;;;;5085441;28;19940;-68
2024/01/06 00:50:16;;;;;;;;;;;2.70;99.90;;;;;;5091483;28;20328;-68
2024/01/06 00:52:43;;;;;;;;;;;2.60;99.90;;;;;;5091707;28;19924;-68
2024/01/06 00:55:09;;;;;;;;;;;2.60;99.90;;;;;;5091049;28;20348;-68
2024/01/06 00:57:37;;;;;;;;;;;2.60;99.90;;;;;;5091845;28;19928;-68
2024/01/06 01:00:04;;;;;;;;;;;2.60;99.90;;;;;;5088910;28;19924;-68
2024/01/06 01:02:31;;;;;;;;;;;2.60;99.90;;;;;;5092913;28;19928;-69
2024/01/06 01:04:58;;;;;;;;;;;2.60;99.90;;;;;;5094297;28;19978;-68
2024/01/06 01:07:26;;;;;;;;;;;2.70;99.90;;;;;;5095450;28;19932;-68
2024/01/06 01:09:53;;;;;;;;;;;2.70;99.90;;;;;;5095325;28;19977;-69
2024/01/06 01:12:19;;;;;;;;;;;2.80;99.90;;;;;;5095267;28;20394;-69
2024/01/06 01:14:47;;;;;;;;;;;2.90;99.90;;;;;;5086801;28;19924;-68
2024/01/06 01:17:14;;;;;;;;;;;2.90;99.90;;;;;;5095111;28;19932;-68
2024/01/06 01:19:41;;;;;;;;;;;3.00;99.90;;;;;;5086543;28;20119;-68
2024/01/06 01:22:07;;;;;;;;;;;3.10;99.90;;;;;;5094921;28;19931;-69
2024/01/06 01:24:34;;;;;;;;;;;3.10;99.90;;;;;;5095269;28;19924;-69
2024/01/06 01:27:00;;;;;;;;;;;3.20;99.90;;;;;;5095114;28;20352;-69
2024/01/06 01:29:27;;;;;;;;;;;3.20;99.90;;;;;;5090810;28;19927;-68
2024/01/06 01:31:54;;;;;;;;;;;3.20;99.90;;;;;;5094488;28;19924;-69
2024/01/06 01:34:21;;;;;;;;;;;3.20;99.90;;;;;;5090694;28;20320;-69
2024/01/06 01:36:47;;;;;;;;;;;3.20;99.90;;;;;;5091607;28;19924;-68
2024/01/06 01:39:14;;;;;;;;;;;3.20;99.90;;;;;;5094710;28;20348;-69
2024/01/06 01:41:40;;;;;;;;;;;3.20;99.90;;;;;;5091835;28;19924;-69
2024/01/06 01:44:07;;;;;;;;;;;3.20;99.90;;;;;;5091594;28;19924;-69
2024/01/06 01:46:33;;;;;;;;;;;3.30;99.90;;;;;;5087947;28;19924;-68
2024/01/06 01:49:02;;;;;;;;;;;3.30;99.90;;;;;;5094002;28;19924;-69
2024/01/06 01:51:30;;;;;;;;;;;3.40;99.90;;;;;;5094603;28;19928;-69
2024/01/06 01:53:57;;;;;;;;;;;3.40;99.90;;;;;;5093984;28;19930;-69
2024/01/06 01:56:25;;;;;;;;;;;3.40;99.90;;;;;;5093292;28;19969;-69
2024/01/06 01:58:51;;;;;;;;;;;3.50;99.90;;;;;;5092539;28;19928;-69
2024/01/06 02:01:18;;;;;;;;;;;3.50;99.90;;;;;;5093756;28;20193;-69
2024/01/06 02:03:44;;;;;;;;;;;3.50;99.90;;;;;;5091601;28;19924;-69
2024/01/06 02:06:13;;;;;;;;;;;3.50;99.90;;;;;;5094072;28;20262;-69
2024/01/06 02:08:40;;;;;;;;;;;3.60;99.90;;;;;;5093645;28;19930;-68
2024/01/06 02:11:06;;;;;;;;;;;3.60;99.90;;;;;;5092748;28;19928;-69
2024/01/06 02:13:36;;;;;;;;;;;3.60;99.90;;;;;;5091525;28;20305;-69
2024/01/06 02:16:03;;;;;;;;;;;3.60;99.90;;;;;;5085135;28;19968;-69
2024/01/06 02:18:29;;;;;;;;;;;3.70;99.90;;;;;;5086257;28;19932;-69
2024/01/06 02:20:58;;;;;;;;;;;3.70;99.90;;;;;;5092164;28;19981;-69
2024/01/06 02:23:25;;;;;;;;;;;3.70;99.90;;;;;;5093592;28;19924;-69
2024/01/06 02:25:52;;;;;;;;;;;3.70;99.90;;;;;;5091140;28;19925;-69
2024/01/06 02:28:19;;;;;;;;;;;3.80;99.90;;;;;;5093700;28;19923;-69
2024/01/06 02:30:45;;;;;;;;;;;3.80;99.90;;;;;;5090658;28;20532;-69
2024/01/06 02:33:12;;;;;;;;;;;3.70;99.90;;;;;;5092936;28;19973;-69
2024/01/06 02:35:39;;;;;;;;;;;3.70;99.90;;;;;;5093892;28;19978;-69
2024/01/06 02:38:06;;;;;;;;;;;3.70;99.90;;;;;;5089969;28;20511;-69
2024/01/06 02:40:34;;;;;;;;;;;3.70;99.90;;;;;;5092535;28;19928;-69
2024/01/06 02:43:00;;;;;;;;;;;3.70;99.90;;;;;;5093564;28;20352;-69
2024/01/06 02:45:27;;;;;;;;;;;3.70;99.90;;;;;;5093167;28;19928;-68
2024/01/06 02:47:53;;;;;;;;;;;3.60;99.90;;;;;;5093359;28;20351;-69
2024/01/06 02:50:20;;;;;;;;;;;3.70;99.90;;;;;;5093339;28;19931;-69
2024/01/06 02:52:46;;;;;;;;;;;3.70;99.90;;;;;;5093534;28;19924;-69
2024/01/06 02:55:13;;;;;;;;;;;3.60;99.90;;;;;;5088844;28;19924;-69
2024/01/06 02:57:41;;;;;;;;;;;3.60;99.90;;;;;;5092884;28;19969;-69
2024/01/06 03:00:08;;;;;;;;;;;3.60;99.90;;;;;;5086990;28;19930;-68
2024/01/06 03:02:35;;;;;;;;;;;3.60;99.90;;;;;;5087734;28;19930;-69
2024/01/06 03:05:02;;;;;;;;;;;3.60;99.90;;;;;;5092465;28;19924;-69
2024/01/06 03:07:28;;;;;;;;;;;3.60;99.90;;;;;;5092729;28;20332;-69
2024/01/06 03:09:55;;;;;;;;;;;3.70;99.90;;;;;;5092173;28;19924;-69
2024/01/06 03:12:21;;;;;;;;;;;3.70;99.90;;;;;;5092897;28;19993;-69
2024/01/06 03:14:49;;;;;;;;;;;3.70;99.90;;;;;;5088487;28;19928;-69
2024/01/06 03:17:16;;;;;;;;;;;3.70;99.90;;;;;;5092959;28;19924;-69
2024/01/06 03:19:42;;;;;;;;;;;3.80;99.90;;;;;;5084415;28;19969;-69
2024/01/06 03:22:09;;;;;;;;;;;3.80;99.90;;;;;;5092918;28;19924;-69
2024/01/06 03:24:35;;;;;;;;;;;3.70;99.90;;;;;;5092619;28;19985;-68
2024/01/06 03:27:02;;;;;;;;;;;3.80;99.90;;;;;;5092670;28;19954;-69
2024/01/06 03:29:29;;;;;;;;;;;3.80;99.90;;;;;;5089123;28;20071;-69
2024/01/06 03:31:57;;;;;;;;;;;3.80;99.90;;;;;;5092225;28;20348;-69
2024/01/06 03:34:23;;;;;;;;;;;3.80;99.90;;;;;;5092715;28;19928;-68
2024/01/06 03:36:50;;;;;;;;;;;3.80;99.90;;;;;;5091867;28;19924;-69
2024/01/06 03:39:16;;;;;;;;;;;3.80;99.90;;;;;;5092450;28;19928;-69
2024/01/06 03:41:43;;;;;;;;;;;3.70;99.90;;;;;;5086363;28;19977;-69
2024/01/06 03:44:09;;;;;;;;;;;3.80;99.90;;;;;;5090701;28;19928;-69
2024/01/06 03:46:36;;;;;;;;;;;3.70;99.90;;;;;;5090680;28;19936;-69
2024/01/06 03:49:04;;;;;;;;;;;3.70;99.90;;;;;;5090725;28;20064;-69
2024/01/06 03:51:31;;;;;;;;;;;3.60;99.90;;;;;;5090400;28;19963;-69
2024/01/06 03:53:57;;;;;;;;;;;3.60;99.90;;;;;;5090372;28;19928;-69
2024/01/06 03:56:24;;;;;;;;;;;3.60;99.90;;;;;;5089595;28;20436;-69
2024/01/06 03:58:50;;;;;;;;;;;3.70;99.90;;;;;;5092347;28;19924;-69
2024/01/06 04:01:17;;;;;;;;;;;3.60;99.90;;;;;;5085134;28;20382;-68
2024/01/06 04:03:43;;;;;;;;;;;3.60;99.90;;;;;;5090858;28;19928;-69
2024/01/06 04:06:11;;;;;;;;;;;3.60;99.90;;;;;;5087932;28;20386;-69
2024/01/06 04:08:37;;;;;;;;;;;3.60;99.90;;;;;;5091943;28;19940;-69
2024/01/06 04:11:04;;;;;;;;;;;3.60;99.90;;;;;;5092115;28;19932;-68
2024/01/06 04:13:30;;;;;;;;;;;3.60;99.90;;;;;;5087622;28;19928;-69
2024/01/06 04:15:57;;;;;;;;;;;3.60;99.90;;;;;;5090897;28;19924;-68
2024/01/06 04:18:23;;;;;;;;;;;3.60;99.90;;;;;;5087069;28;19971;-69
2024/01/06 04:20:50;;;;;;;;;;;3.60;99.90;;;;;;5091972;28;19966;-69
2024/01/06 04:23:18;;;;;;;;;;;3.70;99.90;;;;;;5091622;28;19924;-69
2024/01/06 04:25:44;;;;;;;;;;;3.70;99.90;;;;;;5091917;28;19925;-68
2024/01/06 04:28:11;;;;;;;;;;;3.70;99.90;;;;;;5091968;28;19929;-69
2024/01/06 04:30:37;;;;;;;;;;;3.70;99.90;;;;;;5082411;28;20405;-69
2024/01/06 04:33:04;;;;;;;;;;;3.80;99.90;;;;;;5091533;28;19927;-69
2024/01/06 04:35:30;;;;;;;;;;;3.80;99.90;;;;;;5091906;28;19924;-69
2024/01/06 04:37:57;;;;;;;;;;;3.80;99.90;;;;;;5091248;28;20529;-69
2024/01/06 04:40:25;;;;;;;;;;;3.80;99.90;;;;;;5095992;28;19976;-69
2024/01/06 04:42:51;;;;;;;;;;;3.80;99.90;;;;;;5096007;28;19924;-69
2024/01/06 04:45:19;;;;;;;;;;;3.80;99.90;;;;;;5095471;28;19974;-69
2024/01/06 04:47:45;;;;;;;;;;;3.90;99.90;;;;;;5089526;28;19924;-69
2024/01/06 04:50:12;;;;;;;;;;;3.90;99.90;;;;;;5095786;28;19993;-69
2024/01/06 04:52:38;;;;;;;;;;;3.80;99.90;;;;;;5095596;28;19957;-69
2024/01/06 04:55:05;;;;;;;;;;;3.90;99.90;;;;;;5095870;28;19924;-69
2024/01/06 04:57:33;;;;;;;;;;;3.90;99.90;;;;;;5095653;28;19969;-69
2024/01/06 04:59:59;;;;;;;;;;;3.80;99.90;;;;;;5095215;28;19924;-69
2024/01/06 05:02:26;;;;;;;;;;;3.80;99.90;;;;;;5095534;28;19927;-69
2024/01/06 05:04:52;;;;;;;;;;;3.80;99.90;;;;;;5095395;28;19954;-69
2024/01/06 05:07:19;;;;;;;;;;;3.70;99.90;;;;;;5095453;28;20356;-69
2024/01/06 05:09:45;;;;;;;;;;;3.70;99.90;;;;;;5095402;28;19970;-69
2024/01/06 05:12:12;;;;;;;;;;;3.70;99.90;;;;;;5095432;28;19935;-69
2024/01/06 05:14:40;;;;;;;;;;;3.70;99.90;;;;;;5092194;28;20451;-69
2024/01/06 05:17:06;;;;;;;;;;;3.80;99.90;;;;;;5089904;28;19985;-69
2024/01/06 05:19:33;;;;;;;;;;;3.80;99.90;;;;;;5086502;28;19924;-68
2024/01/06 05:22:00;;;;;;;;;;;3.80;99.90;;;;;;5092587;28;20347;-69
2024/01/06 05:24:26;;;;;;;;;;;3.80;99.90;;;;;;5094961;28;19970;-69
2024/01/06 05:26:53;;;;;;;;;;;3.80;99.90;;;;;;5094799;28;19924;-69
2024/01/06 05:29:19;;;;;;;;;;;3.80;99.90;;;;;;5092362;28;19970;-69
2024/01/06 05:31:48;;;;;;;;;;;3.80;99.90;;;;;;5094892;28;19931;-69
2024/01/06 05:34:15;;;;;;;;;;;3.80;99.90;;;;;;5094274;28;20015;-69
2024/01/06 05:36:41;;;;;;;;;;;3.80;99.90;;;;;;5094956;28;19977;-69
2024/01/06 05:39:08;;;;;;;;;;;3.80;99.90;;;;;;5094970;28;19932;-69
2024/01/06 05:41:38;;;;;;;;;;;3.80;99.90;;;;;;5094602;28;19943;-69
2024/01/06 05:44:04;;;;;;;;;;;3.70;99.90;;;;;;5094578;28;19931;-69
2024/01/06 05:46:31;;;;;;;;;;;3.70;99.90;;;;;;5094730;28;19928;-69
2024/01/06 05:48:59;;;;;;;;;;;3.80;99.90;;;;;;5093076;28;19970;-69
2024/01/06 05:51:26;;;;;;;;;;;3.80;99.90;;;;;;5094597;28;19963;-69
2024/01/06 05:53:52;;;;;;;;;;;3.80;99.90;;;;;;5091254;28;19928;-69
2024/01/06 05:56:24;;;;;;;;;;;3.80;99.90;;;;;;5094527;28;20409;-69
2024/01/06 05:58:50;;;;;;;;;;;3.80;99.90;;;;;;5088034;28;19974;-69
2024/01/06 06:01:17;;;;;;;;;;;3.90;99.90;;;;;;5093513;28;19993;-69
2024/01/06 06:03:44;;;;;;;;;;;3.90;99.90;;;;;;5093277;28;20455;-69
2024/01/06 06:06:11;;;;;;;;;;;3.90;99.90;;;;;;5089855;28;19946;-69
2024/01/06 06:08:38;;;;;;;;;;;3.90;99.90;;;;;;5094282;28;19928;-69
2024/01/06 06:11:10;;;;;;;;;;;3.90;99.90;;;;;;5093391;28;20440;-69
2024/01/06 06:13:37;;;;;;;;;;;3.90;99.90;;;;;;5092262;28;20010;-69
2024/01/06 06:16:04;;;;;;;;;;;4.00;99.90;;;;;;5092365;28;19932;-69
2024/01/06 06:18:30;;;;;;;;;;;4.00;99.90;;;;;;5086609;28;19978;-69
2024/01/06 06:20:57;;;;;;;;;;;4.00;99.90;;;;;;5092286;28;19924;-69
2024/01/06 06:23:25;;;;;;;;;;;4.00;99.90;;;;;;5093472;28;19970;-69
2024/01/06 06:25:51;;;;;;;;;;;4.00;99.90;;;;;;5093365;28;20445;-69
2024/01/06 06:28:18;;;;;;;;;;;4.00;99.90;;;;;;5093311;28;20441;-69
2024/01/06 06:30:44;;;;;;;;;;;4.00;99.90;;;;;;5093102;28;19928;-69
2024/01/06 06:33:11;;;;;;;;;;;4.00;99.90;;;;;;5092998;28;19932;-69
2024/01/06 06:35:37;;;;;;;;;;;4.00;99.90;;;;;;5092078;28;20309;-69
2024/01/06 06:38:04;;;;;;;;;;;4.10;99.90;;;;;;5093602;28;19969;-68
2024/01/06 06:40:32;;;;;;;;;;;4.00;99.90;;;;;;5092561;28;19978;-68
2024/01/06 06:42:58;;;;;;;;;;;4.00;99.90;;;;;;5093251;28;20131;-69
2024/01/06 06:45:25;;;;;;;;;;;4.00;99.90;;;;;;5093203;28;19940;-69
2024/01/06 06:47:51;;;;;;;;;;;4.00;99.90;;;;;;5091681;28;20340;-69
2024/01/06 06:50:18;;;;;;;;;;;4.10;99.90;;;;;;5093188;28;19924;-69
2024/01/06 06:52:45;;;;;;;;;;;4.00;99.90;;;;;;5093212;28;19973;-69
2024/01/06 06:55:11;;;;;;;;;;;4.00;99.90;;;;;;5093254;28;19924;-66
2024/01/06 06:57:39;;;;;;;;;;;4.00;99.90;;;;;;5092999;28;19924;-67
2024/01/06 07:00:07;;;;;;;;;;;3.90;99.90;;;;;;5092007;28;20378;-67
2024/01/06 07:02:34;;;;;;;;;;;3.90;99.90;;;;;;5093290;28;19978;-66
2024/01/06 07:05:00;;;;;;;;;;;3.90;99.90;;;;;;5093119;28;19924;-66
2024/01/06 07:07:27;;;;;;;;;;;3.90;99.90;;;;;;5093083;28;19924;-66
2024/01/06 07:09:53;;;;;;;;;;;4.00;99.90;;;;;;5094483;28;20452;-67
2024/01/06 07:12:20;;;;;;;;;;;4.00;99.90;;;;;;5087822;28;19936;-67
2024/01/06 07:14:48;;;;;;;;;;;4.00;99.90;;;;;;5085061;28;19974;-66
2024/01/06 07:17:14;;;;;;;;;;;4.00;99.90;;;;;;5089975;28;19973;-67
2024/01/06 07:19:41;;;;;;;;;;;4.10;99.90;;;;;;5082345;28;20052;-67
2024/01/06 07:22:07;;;;;;;;;;;4.10;99.90;;;;;;5086098;28;19924;-67
2024/01/06 07:24:34;;;;;;;;;;;4.10;99.90;;;;;;5091910;28;19924;-67
2024/01/06 07:27:00;;;;;;;;;;;4.20;99.90;;;;;;5090074;28;19925;-67
2024/01/06 07:29:27;;;;;;;;;;;4.10;99.90;;;;;;5091172;28;20355;-67
2024/01/06 07:31:55;;;;;;;;;;;4.10;99.90;;;;;;5092726;28;19928;-68
2024/01/06 07:34:21;;;;;;;;;;;4.20;99.90;;;;;;5087779;28;20011;-67
2024/01/06 07:36:48;;;;;;;;;;;4.10;99.90;;;;;;5092523;28;19924;-67
2024/01/06 07:39:15;;;;;;;;;;;4.10;99.90;;;;;;5092360;28;20364;-66
2024/01/06 07:41:41;;;;;;;;;;;4.10;99.90;;;;;;5092368;28;19924;-67
2024/01/06 07:44:08;;;;;;;;;;;4.10;99.90;;;;;;5090189;28;19924;-66
2024/01/06 07:46:35;;;;;;;;;;;4.10;99.90;;;;;;5088870;28;19924;-67
2024/01/06 07:49:03;;;;;;;;;;;4.10;99.90;;;;;;5092158;28;19932;-67
2024/01/06 07:51:29;;;;;;;;;;;4.10;99.90;;;;;;5087420;28;20397;-67
2024/01/06 07:53:56;;;;;;;;;;;4.10;99.90;;;;;;5091408;28;19924;-67
2024/01/06 07:56:22;;;;;;;;;;;4.20;99.90;;;;;;5092006;28;19924;-67
2024/01/06 07:58:48;;;;;;;;;;;4.20;99.90;;;;;;5091638;28;20416;-66
2024/01/06 08:01:15;;;;;;;;;;;4.10;99.90;;;;;;5091721;28;19969;-67
2024/01/06 08:03:41;;;;;;;;;;;4.10;99.90;;;;;;5080698;28;19970;-67
2024/01/06 08:06:09;;;;;;;;;;;4.10;99.90;;;;;;5084812;28;20336;-67
2024/01/06 08:08:36;;;;;;;;;;;4.10;99.90;;;;;;5092012;28;19958;-67
2024/01/06 08:11:03;;;;;;;;;;;4.10;99.90;;;;;;5091011;28;20399;-67
2024/01/06 08:13:29;;;;;;;;;;;4.10;99.90;;;;;;5091520;28;19969;-67
2024/01/06 08:15:56;;;;;;;;;;;4.10;99.90;;;;;;5090994;28;19954;-67
2024/01/06 08:18:22;;;;;;;;;;;4.10;99.90;;;;;;5088567;28;20001;-67
2024/01/06 08:20:49;;;;;;;;;;;4.10;99.90;;;;;;5091486;28;20045;-67
2024/01/06 08:23:18;;;;;;;;;;;4.10;99.90;;;;;;5091518;28;19928;-67
2024/01/06 08:25:45;;;;;;;;;;;4.20;99.90;;;;;;5089591;28;20000;-67
2024/01/06 08:28:12;;;;;;;;;;;4.20;99.90;;;;;;5091385;28;19924;-67
2024/01/06 08:30:38;;;;;;;;;;;4.10;99.90;;;;;;5087881;28;19924;-67
2024/01/06 08:33:05;;;;;;;;;;;4.20;99.90;;;;;;5091907;28;19924;-66
2024/01/06 08:35:32;;;;;;;;;;;4.20;99.90;;;;;;5086551;28;19928;-67
2024/01/06 08:37:58;;;;;;;;;;;4.20;99.90;;;;;;5091508;28;20003;-67
2024/01/06 08:40:27;;;;;;;;;;;4.20;99.90;;;;;;5091508;28;19932;-67
2024/01/06 08:42:53;;;;;;;;;;;4.20;99.90;;;;;;5086428;28;20026;-67
2024/01/06 08:45:20;;;;;;;;;;;4.20;99.90;;;;;;5086841;28;19978;-67
2024/01/06 08:47:46;;;;;;;;;;;4.30;99.90;;;;;;5087220;28;20390;-67
2024/01/06 08:50:13;;;;;;;;;;;4.30;99.90;;;;;;5091614;28;19928;-67
2024/01/06 08:52:40;;;;;;;;;;;4.40;99.90;;;;;;5089809;28;20432;-67
2024/01/06 08:55:07;;;;;;;;;;;4.30;99.90;;;;;;5084014;28;19924;-66
2024/01/06 08:57:34;;;;;;;;;;;4.40;99.90;;;;;;5089244;28;19924;-66
2024/01/06 09:00:01;;;;;;;;;;;4.40;99.90;;;;;;5091118;28;19924;-67
2024/01/06 09:02:27;;;;;;;;;;;4.50;99.90;;;;;;5091391;28;20389;-67
2024/01/06 09:04:54;;;;;;;;;;;4.40;99.90;;;;;;5091024;28;19979;-68
2024/01/06 09:07:20;;;;;;;;;;;4.60;99.90;;;;;;5091445;28;20421;-67
2024/01/06 09:09:47;;;;;;;;;;;4.60;99.90;;;;;;5091332;28;20023;-67
2024/01/06 09:12:13;;;;;;;;;;;4.60;99.90;;;;;;5091285;28;19954;-67
2024/01/06 09:14:41;;;;;;;;;;;4.70;99.90;;;;;;5090829;28;20344;-67
2024/01/06 09:17:08;;;;;;;;;;;4.70;99.90;;;;;;5084917;28;20012;-67
2024/01/06 09:19:34;;;;;;;;;;;4.70;99.90;;;;;;5084588;28;19931;-67
2024/01/06 09:22:01;;;;;;;;;;;4.70;99.90;;;;;;5090995;28;20378;-67
2024/01/06 09:24:27;;;;;;;;;;;4.80;99.90;;;;;;5092675;28;19928;-67
2024/01/06 09:26:54;;;;;;;;;;;4.80;99.90;;;;;;5085618;28;19983;-67
2024/01/06 09:29:21;;;;;;;;;;;4.90;99.90;;;;;;5090607;28;19928;-67
2024/01/06 09:31:49;;;;;;;;;;;4.90;99.90;;;;;;5092164;28;19974;-67
2024/01/06 09:34:15;;;;;;;;;;;4.90;99.90;;;;;;5094327;28;19928;-67
2024/01/06 09:36:42;;;;;;;;;;;4.90;99.90;;;;;;5094134;28;20044;-67
2024/01/06 09:39:08;;;;;;;;;;;4.90;99.90;;;;;;5094210;28;19924;-67
2024/01/06 09:41:35;;;;;;;;;;;4.90;99.90;;;;;;5090837;28;20014;-67
2024/01/06 09:44:01;;;;;;;;;;;4.90;99.90;;;;;;5093495;28;20459;-67
2024/01/06 09:46:30;;;;;;;;;;;4.80;99.90;;;;;;5091814;28;20378;-67
2024/01/06 09:48:58;;;;;;;;;;;4.90;99.90;;;;;;5094781;28;19924;-68
2024/01/06 09:51:25;;;;;;;;;;;4.90;99.90;;;;;;5088240;28;20379;-67
2024/01/06 09:53:57;;;;;;;;;;;4.90;99.90;;;;;;5090999;28;19931;-67
2024/01/06 09:56:24;;;;;;;;;;;4.90;99.90;;;;;;5088558;28;20291;-67
2024/01/06 09:58:51;;;;;;;;;;;4.90;99.90;;;;;;5093044;28;19928;-67
2024/01/06 10:01:18;;;;;;;;;;;4.90;99.90;;;;;;5092044;28;20356;-67
2024/01/06 10:03:46;;;;;;;;;;;4.90;99.90;;;;;;5091269;28;19943;-70
2024/01/06 10:06:14;;;;;;;;;;;4.90;99.90;;;;;;5086405;28;20018;-72
2024/01/06 10:08:43;;;;;;;;;;;5.30;99.90;;;;;;5094341;28;19997;-70
2024/01/06 10:11:09;;;;;;;;;;;5.60;99.90;;;;;;5085751;28;19924;-67
2024/01/06 10:13:37;;;;;;;;;;;5.90;99.90;;;;;;5092837;28;19932;-67
2024/01/06 10:16:03;;;;;;;;;;;5.80;99.90;;;;;;5085377;28;19932;-68
2024/01/06 10:18:30;;;;;;;;;;;5.70;99.90;;;;;;5086532;28;20394;-68
2024/01/06 10:20:56;;;;;;;;;;;5.70;99.90;;;;;;5091880;28;19954;-67
2024/01/06 10:23:25;;;;;;;;;;;5.70;99.90;;;;;;5092418;28;19954;-68
2024/01/06 10:25:52;;;;;;;;;;;5.60;99.90;;;;;;5093478;28;19924;-67
2024/01/06 10:28:19;;;;;;;;;;;5.50;99.90;;;;;;5094083;28;19928;-67
2024/01/06 10:30:45;;;;;;;;;;;5.40;99.90;;;;;;5090683;28;19928;-68
2024/01/06 10:33:13;;;;;;;;;;;5.40;99.90;;;;;;5089319;28;20339;-67
2024/01/06 10:35:39;;;;;;;;;;;5.30;99.90;;;;;;5092755;28;19928;-67
2024/01/06 10:38:07;;;;;;;;;;;5.30;99.90;;;;;;5090994;28;20378;-68
2024/01/06 10:40:35;;;;;;;;;;;5.40;99.90;;;;;;5093336;28;19985;-67
2024/01/06 10:43:01;;;;;;;;;;;5.30;99.90;;;;;;5093730;28;19932;-68
2024/01/06 10:45:29;;;;;;;;;;;5.40;99.90;;;;;;5093404;28;19924;-68
2024/01/06 10:47:55;;;;;;;;;;;5.40;99.90;;;;;;5093014;28;19927;-67
2024/01/06 10:50:22;;;;;;;;;;;5.50;99.90;;;;;;5092103;28;19977;-67
2024/01/06 10:52:49;;;;;;;;;;;5.40;99.90;;;;;;5090122;28;19977;-68
2024/01/06 10:55:17;;;;;;;;;;;5.40;99.90;;;;;;5089337;28;20274;-67
2024/01/06 10:57:45;;;;;;;;;;;5.40;99.90;;;;;;5091996;28;20449;-68
2024/01/06 11:00:12;;;;;;;;;;;5.50;99.90;;;;;;5088191;28;20018;-68
2024/01/06 11:02:39;;;;;;;;;;;5.50;99.90;;;;;;5082235;28;19925;-68
2024/01/06 11:05:07;;;;;;;;;;;5.50;99.90;;;;;;5085083;28;20411;-67
2024/01/06 11:07:34;;;;;;;;;;;5.50;99.90;;;;;;5082843;28;19959;-68
2024/01/06 11:10:05;;;;;;;;;;;5.40;99.90;;;;;;5087751;28;20026;-67
2024/01/06 11:12:32;;;;;;;;;;;5.40;99.90;;;;;;5088183;28;19938;-67
2024/01/06 11:15:00;;;;;;;;;;;5.30;99.90;;;;;;5087703;28;20781;-68
2024/01/06 11:17:45;;;;;;;;;;;5.30;99.90;;;;;;5087781;28;19932;-68
2024/01/06 11:20:12;;;;;;;;;;;5.30;99.90;;;;;;5087621;28;19936;-68
2024/01/06 11:22:39;;;;;;;;;;;5.30;99.90;;;;;;5087947;28;19925;-68
2024/01/06 11:25:07;;;;;;;;;;;5.20;99.90;;;;;;5086567;28;20375;-68
2024/01/06 11:27:35;;;;;;;;;;;5.20;99.90;;;;;;5087354;28;19924;-68
2024/01/06 11:30:05;;;;;;;;;;;5.30;99.90;;;;;;5087218;28;20037;-67
2024/01/06 11:32:35;;;;;;;;;;;5.40;99.90;;;;;;5086947;28;19938;-67
2024/01/06 11:35:09;;;;;;;;;;;5.40;99.90;;;;;;5087344;28;19976;-67
2024/01/06 11:37:37;;;;;;;;;;;5.40;99.90;;;;;;5087044;28;20401;-68
2024/01/06 11:40:04;;;;;;;;;;;5.40;99.90;;;;;;5087677;28;20019;-67
2024/01/06 11:42:34;;;;;;;;;;;5.30;99.90;;;;;;5087642;28;20402;-68
2024/01/06 11:45:05;;;;;;;;;;;5.30;99.90;;;;;;5086132;28;19937;-68
2024/01/06 11:47:32;;;;;;;;;;;5.30;99.90;;;;;;5087399;28;20026;-68
2024/01/06 11:50:00;;;;;;;;;;;5.40;99.90;;;;;;5084741;28;20034;-67
2024/01/06 11:52:28;;;;;;;;;;;5.40;99.90;;;;;;5085897;28;19924;-68
2024/01/06 11:54:55;;;;;;;;;;;5.40;99.90;;;;;;5085250;28;19969;-68
2024/01/06 11:57:21;;;;;;;;;;;5.50;99.90;;;;;;5086012;28;19928;-67
2024/01/06 11:59:49;;;;;;;;;;;5.50;99.90;;;;;;5085077;28;19933;-68
2024/01/06 12:02:19;;;;;;;;;;;5.50;99.90;;;;;;5086233;28;20023;-67
2024/01/06 12:04:49;;;;;;;;;;;5.50;99.90;;;;;;5083619;28;19946;-68
2024/01/06 12:07:16;;;;;;;;;;;5.60;99.90;;;;;;5086328;28;19940;-67
2024/01/06 12:09:42;;;;;;;;;;;5.60;99.90;;;;;;5085669;28;20105;-67
2024/01/06 12:12:10;;;;;;;;;;;5.60;99.90;;;;;;5085810;28;20008;-68
2024/01/06 12:14:37;;;;;;;;;;;5.60;99.90;;;;;;5085979;28;19928;-68
2024/01/06 12:17:05;;;;;;;;;;;5.60;99.90;;;;;;5084623;28;19981;-68
2024/01/06 12:19:33;;;;;;;;;;;5.70;99.90;;;;;;5085695;28;20486;-69
2024/01/06 12:21:59;;;;;;;;;;;5.70;99.90;;;;;;5086600;28;19977;-68
2024/01/06 12:24:28;;;;;;;;;;;5.60;99.90;;;;;;5086407;28;19950;-67
2024/01/06 12:26:56;;;;;;;;;;;5.60;99.90;;;;;;5086989;28;19932;-67
2024/01/06 12:29:22;;;;;;;;;;;5.60;99.90;;;;;;5087124;28;20351;-66
2024/01/06 12:31:49;;;;;;;;;;;5.60;99.90;;;;;;5085770;28;20317;-67
2024/01/06 12:34:15;;;;;;;;;;;5.60;99.90;;;;;;5087523;28;19978;-68
2024/01/06 12:36:44;;;;;;;;;;;5.50;99.90;;;;;;5086754;28;20458;-68
2024/01/06 12:39:14;;;;;;;;;;;5.50;99.90;;;;;;5086819;28;20022;-68
2024/01/06 12:41:41;;;;;;;;;;;5.50;99.90;;;;;;5087485;28;20378;-68
2024/01/06 12:44:08;;;;;;;;;;;5.60;99.90;;;;;;5086798;28;19925;-67
2024/01/06 12:46:34;;;;;;;;;;;5.60;99.90;;;;;;5085120;28;20369;-67
2024/01/06 12:49:01;;;;;;;;;;;5.60;99.90;;;;;;5086369;28;19932;-67
2024/01/06 12:51:27;;;;;;;;;;;5.60;99.90;;;;;;5086291;28;19924;-67
2024/01/06 12:53:55;;;;;;;;;;;5.70;99.90;;;;;;5085302;28;20475;-67
2024/01/06 12:56:22;;;;;;;;;;;5.70;99.90;;;;;;5086425;28;19928;-67
2024/01/06 12:58:48;;;;;;;;;;;5.70;99.90;;;;;;5087601;28;20883;-67
2024/01/06 13:01:15;;;;;;;;;;;5.70;99.90;;;;;;5088320;28;19932;-67
2024/01/06 13:03:41;;;;;;;;;;;5.80;99.90;;;;;;5089627;28;19928;-67
2024/01/06 13:06:09;;;;;;;;;;;5.80;99.90;;;;;;5090178;28;19932;-67
2024/01/06 13:08:35;;;;;;;;;;;5.90;99.90;;;;;;5089433;28;19985;-67
2024/01/06 13:11:03;;;;;;;;;;;5.80;99.90;;;;;;5089159;28;19932;-67
2024/01/06 13:13:31;;;;;;;;;;;5.80;99.90;;;;;;5089281;28;19932;-67
2024/01/06 13:15:57;;;;;;;;;;;5.80;99.90;;;;;;5089620;28;20023;-67
2024/01/06 13:18:24;;;;;;;;;;;5.80;99.90;;;;;;5090177;28;19932;-67
2024/01/06 13:20:51;;;;;;;;;;;5.80;99.90;;;;;;5088101;28;19981;-67
2024/01/06 13:23:17;;;;;;;;;;;5.80;99.90;;;;;;5089128;28;20382;-67
2024/01/06 13:25:44;;;;;;;;;;;5.80;99.90;;;;;;5089353;28;19932;-67
2024/01/06 13:28:12;;;;;;;;;;;5.80;99.90;;;;;;5089566;28;19936;-67
2024/01/06 13:30:39;;;;;;;;;;;5.80;99.90;;;;;;5089450;28;19924;-67
2024/01/06 13:33:05;;;;;;;;;;;5.80;99.90;;;;;;5088634;28;20360;-67
2024/01/06 13:35:33;;;;;;;;;;;5.90;99.90;;;;;;5088370;28;20149;-67
2024/01/06 13:38:00;;;;;;;;;;;5.80;99.90;;;;;;5089068;28;19932;-67
2024/01/06 13:40:26;;;;;;;;;;;5.90;99.90;;;;;;5089447;28;19947;-67
2024/01/06 13:42:54;;;;;;;;;;;5.90;99.90;;;;;;5090708;28;19928;-67
2024/01/06 13:45:21;;;;;;;;;;;5.90;99.90;;;;;;5089459;28;19927;-67
2024/01/06 13:47:48;;;;;;;;;;;6.00;99.90;;;;;;5088255;28;19936;-67
2024/01/06 13:50:16;;;;;;;;;;;6.00;99.90;;;;;;5088363;28;20001;-67
2024/01/06 13:52:43;;;;;;;;;;;6.00;99.90;;;;;;5089735;28;19985;-67
2024/01/06 13:55:10;;;;;;;;;;;6.00;99.90;;;;;;5088261;28;19954;-67
2024/01/06 13:57:37;;;;;;;;;;;6.00;99.90;;;;;;5088085;28;19934;-67
2024/01/06 14:00:04;;;;;;;;;;;5.90;99.90;;;;;;5088350;28;19939;-67
2024/01/06 14:02:32;;;;;;;;;;;5.90;99.90;;;;;;5088246;28;19935;-67
2024/01/06 14:04:58;;;;;;;;;;;5.90;99.90;;;;;;5086750;28;20494;-67
2024/01/06 14:07:26;;;;;;;;;;;5.90;99.90;;;;;;5088708;28;19925;-67
2024/01/06 14:09:52;;;;;;;;;;;5.90;99.90;;;;;;5087648;28;19932;-67
2024/01/06 14:12:19;;;;;;;;;;;5.90;99.90;;;;;;5088338;28;20126;-67
2024/01/06 14:14:46;;;;;;;;;;;5.90;99.90;;;;;;5088984;28;19931;-66
2024/01/06 14:17:12;;;;;;;;;;;5.90;99.90;;;;;;5086854;28;20191;-67
2024/01/06 14:19:40;;;;;;;;;;;5.90;99.90;;;;;;5089908;28;19931;-66
2024/01/06 14:22:06;;;;;;;;;;;5.90;99.90;;;;;;5089165;28;20336;-67
2024/01/06 14:24:33;;;;;;;;;;;5.90;99.90;;;;;;5089556;28;19932;-66
2024/01/06 14:27:00;;;;;;;;;;;5.90;99.90;;;;;;5089827;28;19932;-66
2024/01/06 14:29:26;;;;;;;;;;;5.90;99.90;;;;;;5088620;28;19925;-67